Impacts METAR Board
IDs:

KBWI - Baltimore-Washington, MD, US

Updated at: 1600 UTC 03 Dec 2021
Potential Impact None Slight Moderate High
Time 03/04Z 03/05Z 03/06Z 03/07Z 03/08Z 03/09Z 03/10Z 03/11Z 03/12Z 03/13Z 03/14Z 03/15Z 03/16Z
Temp61 59 58 54 51 51 46 45 44 44 49 50 52
Dewpt39 38 34 33 29 27 27 28 28 29 30 29 30
Altim29.74 29.76 29.81 29.87 29.89 29.91 29.93 29.95 29.99 29.99 30.02 30.05 30.03
VIS10 10 10 10 10 10 10 10 10 10 10 10 10
CIG-- -- -- 250 -- -- -- -- -- -- -- 110 110
CoverFEWFEWSCTBKNFEWCLRCLRCLRFEWFEWSCTBKNBKN
FltCatVFRVFRVFRVFRVFRVFRVFRVFRVFRVFRVFRVFRVFR
WX--------------------------
WDir280290330320280300290270250250270290270
WSpd12 15 7 7 14 13 6 7 5 6 6 10 12
WGst22 21 20 -- -- 25 -- -- -- -- -- -- 19
Raw hourly METARs
KBWI 030354Z 28012G22KT 10SM FEW060 16/04 A2974 RMK AO2 PK WND 29029/0332 SLP071 T01610039
KBWI 030454Z 29015G21KT 10SM FEW250 15/03 A2976 RMK AO2 SLP078 T01500033 401890061
KBWI 030554Z 33007G20KT 10SM SCT065 SCT250 14/01 A2981 RMK AO2 PRESRR SLP094 60000 T01440011 10189 20139 53027
KBWI 030654Z 32007KT 10SM SCT065 BKN250 12/01 A2987 RMK AO2 SLP114 T01220006
KBWI 030754Z 28014KT 10SM FEW065 FEW250 11/M02 A2989 RMK AO2 SLP122 T01061017
KBWI 030854Z 30013G25KT 10SM CLR 11/M03 A2991 RMK AO2 PK WND 30030/0819 SLP128 T01061028 51034
KBWI 030954Z 29006KT 10SM CLR 08/M03 A2993 RMK AO2 SLP135 T00781028
KBWI 031054Z 27007KT 10SM CLR 07/M02 A2995 RMK AO2 SLP141 T00721022
KBWI 031154Z 25005KT 10SM FEW250 07/M02 A2999 RMK AO2 SLP154 T00671022 10144 20061 53026
KBWI 031254Z 25006KT 10SM FEW140 FEW250 07/M02 A2999 RMK AO2 SLP153 T00671017
KBWI 031354Z 27006KT 10SM FEW140 SCT250 09/M01 A3002 RMK AO2 SLP165 T00941011
KBWI 031454Z 29010KT 10SM BKN110 BKN250 10/M02 A3005 RMK AO2 SLP174 T01001017 53020
KBWI 031554Z 27012G19KT 10SM BKN110 11/M01 A3003 RMK AO2 SLP170 T01111011



Page loaded:  16:34 UTC  |   08:34 AM Pacific  |   09:34 AM Mountain  |   10:34 AM Central  |   11:34 AM Eastern

 

ADVISORIES

FORECASTS

FORECASTS

OBSERVATIONS

USER TOOLS

ABOUT US